Terminal Aerodrome Forecast
Issued by NWS

Home | Current Version | Previous Version | Text Only | Print | Product List | Glossary On
Versions: 1 2 3 4 5 6 7 8 9 10 11
104
FTUS46 KSEW 241123
TAFBLI
TAF
KBLI 241123Z 2412/2512 05005KT P6SM VCSH BKN025 OVC035
     FM241600 35005KT P6SM SCT025 BKN050
     FM242200 26006KT P6SM SCT040
     FM250500 17007KT P6SM SCT012 BKN060
     FM251000 16010KT P6SM BKN012 OVC025=

USA.gov is the U.S. government's official web portal to all federal, state and local government web resources and services.